sensor_id;sensor_type;location;lat;lon;timestamp;P1;durP1;ratioP1;P2;durP2;ratioP2
41139;SDS011;26881;48.784;9.192;2022-10-26T00:00:12;9.98;;;3.17;;
41139;SDS011;26881;48.784;9.192;2022-10-26T00:05:35;6.18;;;2.95;;
41139;SDS011;26881;48.784;9.192;2022-10-26T00:10:56;11.02;;;2.30;;
41139;SDS011;26881;48.784;9.192;2022-10-26T00:16:25;6.82;;;2.60;;
41139;SDS011;26881;48.784;9.192;2022-10-26T00:21:48;7.38;;;2.83;;
41139;SDS011;26881;48.784;9.192;2022-10-26T00:27:09;7.05;;;2.63;;
41139;SDS011;26881;48.784;9.192;2022-10-26T00:32:31;8.85;;;2.53;;
41139;SDS011;26881;48.784;9.192;2022-10-26T00:37:54;8.00;;;2.80;;
41139;SDS011;26881;48.784;9.192;2022-10-26T00:48:51;3.70;;;2.28;;
41139;SDS011;26881;48.784;9.192;2022-10-26T00:54:16;4.47;;;2.38;;
41139;SDS011;26881;48.784;9.192;2022-10-26T00:59:40;8.65;;;2.90;;
41139;SDS011;26881;48.784;9.192;2022-10-26T01:05:04;15.02;;;2.92;;
41139;SDS011;26881;48.784;9.192;2022-10-26T01:10:27;10.52;;;2.60;;
41139;SDS011;26881;48.784;9.192;2022-10-26T01:21:20;6.97;;;2.63;;
41139;SDS011;26881;48.784;9.192;2022-10-26T01:32:52;7.70;;;2.70;;
41139;SDS011;26881;48.784;9.192;2022-10-26T01:44:04;7.55;;;2.75;;
41139;SDS011;26881;48.784;9.192;2022-10-26T01:49:32;11.07;;;3.15;;
41139;SDS011;26881;48.784;9.192;2022-10-26T01:55:02;6.10;;;3.25;;
41139;SDS011;26881;48.784;9.192;2022-10-26T02:00:25;5.03;;;3.10;;
41139;SDS011;26881;48.784;9.192;2022-10-26T02:05:49;7.28;;;3.45;;
41139;SDS011;26881;48.784;9.192;2022-10-26T02:11:40;6.35;;;3.17;;
41139;SDS011;26881;48.784;9.192;2022-10-26T02:17:09;7.40;;;2.97;;
41139;SDS011;26881;48.784;9.192;2022-10-26T02:22:49;4.20;;;3.00;;
41139;SDS011;26881;48.784;9.192;2022-10-26T02:28:13;10.57;;;3.58;;
41139;SDS011;26881;48.784;9.192;2022-10-26T02:33:40;8.15;;;3.47;;
41139;SDS011;26881;48.784;9.192;2022-10-26T02:39:06;8.90;;;3.60;;
41139;SDS011;26881;48.784;9.192;2022-10-26T02:44:31;5.20;;;3.45;;
41139;SDS011;26881;48.784;9.192;2022-10-26T02:49:59;5.82;;;3.28;;
41139;SDS011;26881;48.784;9.192;2022-10-26T02:55:28;5.72;;;3.25;;
41139;SDS011;26881;48.784;9.192;2022-10-26T03:00:54;9.35;;;2.97;;
41139;SDS011;26881;48.784;9.192;2022-10-26T03:06:19;8.88;;;2.95;;
41139;SDS011;26881;48.784;9.192;2022-10-26T03:11:44;10.98;;;2.92;;
41139;SDS011;26881;48.784;9.192;2022-10-26T03:17:06;9.02;;;3.15;;
41139;SDS011;26881;48.784;9.192;2022-10-26T03:22:28;7.60;;;3.60;;
41139;SDS011;26881;48.784;9.192;2022-10-26T03:27:59;6.10;;;3.13;;
41139;SDS011;26881;48.784;9.192;2022-10-26T03:33:22;6.93;;;2.90;;
41139;SDS011;26881;48.784;9.192;2022-10-26T03:38:48;7.40;;;2.80;;
41139;SDS011;26881;48.784;9.192;2022-10-26T03:44:09;4.95;;;2.83;;
41139;SDS011;26881;48.784;9.192;2022-10-26T03:49:31;6.95;;;2.58;;
41139;SDS011;26881;48.784;9.192;2022-10-26T03:54:53;5.53;;;2.63;;
41139;SDS011;26881;48.784;9.192;2022-10-26T04:00:15;5.68;;;2.80;;
41139;SDS011;26881;48.784;9.192;2022-10-26T04:05:38;6.85;;;2.70;;
41139;SDS011;26881;48.784;9.192;2022-10-26T04:11:00;6.10;;;3.10;;
41139;SDS011;26881;48.784;9.192;2022-10-26T04:16:25;5.20;;;3.50;;
41139;SDS011;26881;48.784;9.192;2022-10-26T04:21:53;7.95;;;3.70;;
41139;SDS011;26881;48.784;9.192;2022-10-26T04:27:15;13.10;;;4.80;;
41139;SDS011;26881;48.784;9.192;2022-10-26T04:32:37;10.70;;;4.30;;
41139;SDS011;26881;48.784;9.192;2022-10-26T04:37:59;8.13;;;4.10;;
41139;SDS011;26881;48.784;9.192;2022-10-26T04:43:22;10.13;;;3.55;;
41139;SDS011;26881;48.784;9.192;2022-10-26T04:48:44;6.07;;;3.00;;
41139;SDS011;26881;48.784;9.192;2022-10-26T04:54:08;6.95;;;3.00;;
41139;SDS011;26881;48.784;9.192;2022-10-26T04:59:30;8.02;;;2.95;;
41139;SDS011;26881;48.784;9.192;2022-10-26T05:04:51;7.32;;;3.17;;
41139;SDS011;26881;48.784;9.192;2022-10-26T05:10:13;8.60;;;3.05;;
41139;SDS011;26881;48.784;9.192;2022-10-26T05:15:35;7.70;;;3.50;;
41139;SDS011;26881;48.784;9.192;2022-10-26T05:20:57;8.68;;;3.50;;
41139;SDS011;26881;48.784;9.192;2022-10-26T05:26:18;9.27;;;3.90;;
41139;SDS011;26881;48.784;9.192;2022-10-26T05:31:40;7.93;;;3.75;;
41139;SDS011;26881;48.784;9.192;2022-10-26T05:37:02;4.88;;;3.00;;
41139;SDS011;26881;48.784;9.192;2022-10-26T05:42:24;7.13;;;3.03;;
41139;SDS011;26881;48.784;9.192;2022-10-26T05:47:45;7.53;;;2.92;;
41139;SDS011;26881;48.784;9.192;2022-10-26T05:53:08;11.90;;;3.63;;
41139;SDS011;26881;48.784;9.192;2022-10-26T05:58:29;7.32;;;3.33;;
41139;SDS011;26881;48.784;9.192;2022-10-26T06:09:38;4.72;;;3.35;;
41139;SDS011;26881;48.784;9.192;2022-10-26T06:15:01;8.00;;;3.22;;
41139;SDS011;26881;48.784;9.192;2022-10-26T06:25:54;9.73;;;3.72;;
41139;SDS011;26881;48.784;9.192;2022-10-26T06:31:25;8.55;;;2.90;;
41139;SDS011;26881;48.784;9.192;2022-10-26T06:36:47;7.68;;;2.90;;
41139;SDS011;26881;48.784;9.192;2022-10-26T06:42:10;4.68;;;2.70;;
41139;SDS011;26881;48.784;9.192;2022-10-26T06:47:35;7.55;;;2.45;;
41139;SDS011;26881;48.784;9.192;2022-10-26T06:53:22;8.45;;;2.70;;
41139;SDS011;26881;48.784;9.192;2022-10-26T06:58:53;6.95;;;3.47;;
41139;SDS011;26881;48.784;9.192;2022-10-26T07:04:26;6.80;;;3.60;;
41139;SDS011;26881;48.784;9.192;2022-10-26T07:09:48;9.23;;;3.65;;
41139;SDS011;26881;48.784;9.192;2022-10-26T07:15:10;7.60;;;3.85;;
41139;SDS011;26881;48.784;9.192;2022-10-26T07:20:38;11.20;;;4.18;;
41139;SDS011;26881;48.784;9.192;2022-10-26T07:26:01;10.75;;;5.53;;
41139;SDS011;26881;48.784;9.192;2022-10-26T07:31:23;11.23;;;5.40;;
41139;SDS011;26881;48.784;9.192;2022-10-26T07:36:46;13.77;;;5.55;;
41139;SDS011;26881;48.784;9.192;2022-10-26T07:42:08;14.35;;;5.30;;
41139;SDS011;26881;48.784;9.192;2022-10-26T07:47:30;11.70;;;4.53;;
41139;SDS011;26881;48.784;9.192;2022-10-26T07:52:51;13.90;;;3.80;;
41139;SDS011;26881;48.784;9.192;2022-10-26T07:58:14;6.40;;;3.00;;
41139;SDS011;26881;48.784;9.192;2022-10-26T08:03:36;8.65;;;3.25;;
41139;SDS011;26881;48.784;9.192;2022-10-26T08:08:57;11.52;;;3.28;;
41139;SDS011;26881;48.784;9.192;2022-10-26T08:14:19;11.85;;;2.90;;
41139;SDS011;26881;48.784;9.192;2022-10-26T08:19:41;12.93;;;3.70;;
41139;SDS011;26881;48.784;9.192;2022-10-26T08:25:03;11.60;;;3.63;;
41139;SDS011;26881;48.784;9.192;2022-10-26T08:30:25;12.27;;;3.53;;
41139;SDS011;26881;48.784;9.192;2022-10-26T08:35:46;13.05;;;2.88;;
41139;SDS011;26881;48.784;9.192;2022-10-26T08:41:08;7.75;;;2.47;;
41139;SDS011;26881;48.784;9.192;2022-10-26T08:46:35;8.93;;;2.63;;
41139;SDS011;26881;48.784;9.192;2022-10-26T08:52:00;6.78;;;2.28;;
41139;SDS011;26881;48.784;9.192;2022-10-26T08:57:24;10.63;;;2.63;;
41139;SDS011;26881;48.784;9.192;2022-10-26T09:03:05;10.23;;;2.70;;
41139;SDS011;26881;48.784;9.192;2022-10-26T09:08:42;4.95;;;2.38;;
41139;SDS011;26881;48.784;9.192;2022-10-26T09:14:24;7.18;;;2.72;;
41139;SDS011;26881;48.784;9.192;2022-10-26T09:25:26;10.38;;;3.22;;
41139;SDS011;26881;48.784;9.192;2022-10-26T09:30:55;16.85;;;3.38;;
41139;SDS011;26881;48.784;9.192;2022-10-26T09:36:19;12.73;;;2.92;;
41139;SDS011;26881;48.784;9.192;2022-10-26T09:41:44;13.07;;;2.80;;
41139;SDS011;26881;48.784;9.192;2022-10-26T09:52:53;9.82;;;2.65;;
41139;SDS011;26881;48.784;9.192;2022-10-26T09:58:16;14.77;;;2.55;;
41139;SDS011;26881;48.784;9.192;2022-10-26T10:03:42;5.80;;;2.13;;
41139;SDS011;26881;48.784;9.192;2022-10-26T10:14:36;6.28;;;2.40;;
41139;SDS011;26881;48.784;9.192;2022-10-26T10:20:07;9.32;;;2.80;;
41139;SDS011;26881;48.784;9.192;2022-10-26T10:25:37;11.57;;;2.70;;
41139;SDS011;26881;48.784;9.192;2022-10-26T10:31:02;11.88;;;2.90;;
41139;SDS011;26881;48.784;9.192;2022-10-26T10:36:27;13.07;;;3.08;;
41139;SDS011;26881;48.784;9.192;2022-10-26T10:41:50;6.82;;;2.30;;
41139;SDS011;26881;48.784;9.192;2022-10-26T10:47:21;7.65;;;2.70;;
41139;SDS011;26881;48.784;9.192;2022-10-26T10:52:47;6.55;;;2.60;;
41139;SDS011;26881;48.784;9.192;2022-10-26T10:58:15;11.77;;;3.03;;
41139;SDS011;26881;48.784;9.192;2022-10-26T11:04:10;8.38;;;2.63;;
41139;SDS011;26881;48.784;9.192;2022-10-26T11:09:36;12.00;;;2.58;;
41139;SDS011;26881;48.784;9.192;2022-10-26T11:15:04;7.80;;;3.00;;
41139;SDS011;26881;48.784;9.192;2022-10-26T11:20:29;5.82;;;2.40;;
41139;SDS011;26881;48.784;9.192;2022-10-26T11:26:02;8.80;;;2.42;;
41139;SDS011;26881;48.784;9.192;2022-10-26T11:31:32;12.40;;;2.35;;
41139;SDS011;26881;48.784;9.192;2022-10-26T11:37:04;8.45;;;2.72;;
41139;SDS011;26881;48.784;9.192;2022-10-26T11:42:34;10.75;;;2.63;;
41139;SDS011;26881;48.784;9.192;2022-10-26T11:48:03;8.63;;;2.25;;
41139;SDS011;26881;48.784;9.192;2022-10-26T11:53:36;12.63;;;2.80;;
41139;SDS011;26881;48.784;9.192;2022-10-26T11:59:01;5.85;;;2.85;;
41139;SDS011;26881;48.784;9.192;2022-10-26T12:04:28;11.20;;;2.45;;
41139;SDS011;26881;48.784;9.192;2022-10-26T12:09:53;5.93;;;2.55;;
41139;SDS011;26881;48.784;9.192;2022-10-26T12:15:24;9.23;;;2.38;;
41139;SDS011;26881;48.784;9.192;2022-10-26T12:21:12;6.78;;;2.58;;
41139;SDS011;26881;48.784;9.192;2022-10-26T12:31:57;6.55;;;2.05;;
41139;SDS011;26881;48.784;9.192;2022-10-26T12:37:30;14.63;;;4.57;;
41139;SDS011;26881;48.784;9.192;2022-10-26T12:42:56;10.70;;;2.55;;
41139;SDS011;26881;48.784;9.192;2022-10-26T12:48:38;7.68;;;2.50;;
41139;SDS011;26881;48.784;9.192;2022-10-26T13:00:00;4.57;;;1.85;;
41139;SDS011;26881;48.784;9.192;2022-10-26T13:11:05;6.22;;;2.08;;
41139;SDS011;26881;48.784;9.192;2022-10-26T13:16:35;8.10;;;2.30;;
41139;SDS011;26881;48.784;9.192;2022-10-26T13:21:57;8.13;;;3.08;;
41139;SDS011;26881;48.784;9.192;2022-10-26T13:27:21;5.70;;;2.33;;
41139;SDS011;26881;48.784;9.192;2022-10-26T13:32:50;10.13;;;2.45;;
41139;SDS011;26881;48.784;9.192;2022-10-26T13:38:17;5.65;;;1.83;;
41139;SDS011;26881;48.784;9.192;2022-10-26T13:43:43;4.63;;;2.10;;
41139;SDS011;26881;48.784;9.192;2022-10-26T13:49:16;9.70;;;2.00;;
41139;SDS011;26881;48.784;9.192;2022-10-26T14:00:15;10.93;;;2.97;;
41139;SDS011;26881;48.784;9.192;2022-10-26T14:05:42;6.93;;;1.90;;
41139;SDS011;26881;48.784;9.192;2022-10-26T14:11:11;3.90;;;1.85;;
41139;SDS011;26881;48.784;9.192;2022-10-26T14:16:35;8.52;;;1.92;;
41139;SDS011;26881;48.784;9.192;2022-10-26T14:21:57;6.95;;;1.98;;
41139;SDS011;26881;48.784;9.192;2022-10-26T14:27:29;7.53;;;1.95;;
41139;SDS011;26881;48.784;9.192;2022-10-26T14:32:53;6.97;;;1.92;;
41139;SDS011;26881;48.784;9.192;2022-10-26T14:38:17;8.88;;;2.25;;
41139;SDS011;26881;48.784;9.192;2022-10-26T14:43:43;8.07;;;2.10;;
41139;SDS011;26881;48.784;9.192;2022-10-26T14:49:11;9.30;;;2.20;;
41139;SDS011;26881;48.784;9.192;2022-10-26T14:54:39;6.03;;;1.90;;
41139;SDS011;26881;48.784;9.192;2022-10-26T15:00:09;8.55;;;2.35;;
41139;SDS011;26881;48.784;9.192;2022-10-26T15:05:32;6.47;;;2.13;;
41139;SDS011;26881;48.784;9.192;2022-10-26T15:10:56;10.15;;;2.35;;
41139;SDS011;26881;48.784;9.192;2022-10-26T15:16:19;10.38;;;2.70;;
41139;SDS011;26881;48.784;9.192;2022-10-26T15:21:45;7.68;;;2.60;;
41139;SDS011;26881;48.784;9.192;2022-10-26T15:27:13;9.75;;;2.72;;
41139;SDS011;26881;48.784;9.192;2022-10-26T15:32:40;12.45;;;3.33;;
41139;SDS011;26881;48.784;9.192;2022-10-26T15:38:01;9.05;;;2.45;;
41139;SDS011;26881;48.784;9.192;2022-10-26T15:43:23;10.32;;;3.05;;
41139;SDS011;26881;48.784;9.192;2022-10-26T15:48:46;10.15;;;3.33;;
41139;SDS011;26881;48.784;9.192;2022-10-26T15:54:16;11.75;;;3.67;;
41139;SDS011;26881;48.784;9.192;2022-10-26T15:59:38;13.82;;;3.20;;
41139;SDS011;26881;48.784;9.192;2022-10-26T16:05:00;8.10;;;4.03;;
41139;SDS011;26881;48.784;9.192;2022-10-26T16:10:22;8.15;;;3.17;;
41139;SDS011;26881;48.784;9.192;2022-10-26T16:15:45;11.65;;;3.13;;
41139;SDS011;26881;48.784;9.192;2022-10-26T16:21:11;10.63;;;3.22;;
41139;SDS011;26881;48.784;9.192;2022-10-26T16:26:33;8.70;;;3.63;;
41139;SDS011;26881;48.784;9.192;2022-10-26T16:31:55;6.30;;;2.63;;
41139;SDS011;26881;48.784;9.192;2022-10-26T16:37:17;11.13;;;3.55;;
41139;SDS011;26881;48.784;9.192;2022-10-26T16:42:38;9.38;;;3.00;;
41139;SDS011;26881;48.784;9.192;2022-10-26T16:48:05;11.00;;;3.28;;
41139;SDS011;26881;48.784;9.192;2022-10-26T16:53:34;14.00;;;3.10;;
41139;SDS011;26881;48.784;9.192;2022-10-26T16:58:56;7.93;;;3.20;;
41139;SDS011;26881;48.784;9.192;2022-10-26T17:04:18;10.45;;;3.38;;
41139;SDS011;26881;48.784;9.192;2022-10-26T17:09:39;10.95;;;3.30;;
41139;SDS011;26881;48.784;9.192;2022-10-26T17:15:01;11.90;;;3.80;;
41139;SDS011;26881;48.784;9.192;2022-10-26T17:20:23;6.70;;;3.50;;
41139;SDS011;26881;48.784;9.192;2022-10-26T17:25:45;9.70;;;4.18;;
41139;SDS011;26881;48.784;9.192;2022-10-26T17:31:08;8.48;;;3.13;;
41139;SDS011;26881;48.784;9.192;2022-10-26T17:36:32;12.20;;;3.05;;
41139;SDS011;26881;48.784;9.192;2022-10-26T17:41:53;9.45;;;2.92;;
41139;SDS011;26881;48.784;9.192;2022-10-26T17:47:15;5.70;;;2.28;;
41139;SDS011;26881;48.784;9.192;2022-10-26T17:52:37;6.47;;;2.65;;
41139;SDS011;26881;48.784;9.192;2022-10-26T17:57:59;7.78;;;2.70;;
41139;SDS011;26881;48.784;9.192;2022-10-26T18:03:20;6.65;;;2.63;;
41139;SDS011;26881;48.784;9.192;2022-10-26T18:08:42;9.57;;;3.22;;
41139;SDS011;26881;48.784;9.192;2022-10-26T18:14:05;8.98;;;3.20;;
41139;SDS011;26881;48.784;9.192;2022-10-26T18:19:26;12.13;;;4.05;;
41139;SDS011;26881;48.784;9.192;2022-10-26T18:24:48;11.32;;;3.50;;
41139;SDS011;26881;48.784;9.192;2022-10-26T18:30:10;10.85;;;3.55;;
41139;SDS011;26881;48.784;9.192;2022-10-26T18:35:32;13.63;;;4.00;;
41139;SDS011;26881;48.784;9.192;2022-10-26T18:40:54;9.55;;;3.80;;
41139;SDS011;26881;48.784;9.192;2022-10-26T18:46:17;14.45;;;4.97;;
41139;SDS011;26881;48.784;9.192;2022-10-26T18:51:42;8.43;;;3.97;;
41139;SDS011;26881;48.784;9.192;2022-10-26T18:57:03;7.07;;;4.40;;
41139;SDS011;26881;48.784;9.192;2022-10-26T19:02:25;15.63;;;6.85;;
41139;SDS011;26881;48.784;9.192;2022-10-26T19:07:47;13.38;;;4.88;;
41139;SDS011;26881;48.784;9.192;2022-10-26T19:13:09;12.23;;;4.80;;
41139;SDS011;26881;48.784;9.192;2022-10-26T19:18:30;12.60;;;7.03;;
41139;SDS011;26881;48.784;9.192;2022-10-26T19:23:53;17.75;;;6.85;;
41139;SDS011;26881;48.784;9.192;2022-10-26T19:29:17;12.13;;;6.32;;
41139;SDS011;26881;48.784;9.192;2022-10-26T19:34:39;13.25;;;5.85;;
41139;SDS011;26881;48.784;9.192;2022-10-26T19:40:01;11.52;;;4.70;;
41139;SDS011;26881;48.784;9.192;2022-10-26T19:45:22;12.82;;;6.13;;
41139;SDS011;26881;48.784;9.192;2022-10-26T19:50:51;15.18;;;5.82;;
41139;SDS011;26881;48.784;9.192;2022-10-26T19:56:17;15.13;;;5.55;;
41139;SDS011;26881;48.784;9.192;2022-10-26T20:01:41;14.68;;;6.18;;
41139;SDS011;26881;48.784;9.192;2022-10-26T20:07:02;16.90;;;6.40;;
41139;SDS011;26881;48.784;9.192;2022-10-26T20:12:24;13.73;;;6.35;;
41139;SDS011;26881;48.784;9.192;2022-10-26T20:17:46;15.27;;;5.75;;
41139;SDS011;26881;48.784;9.192;2022-10-26T20:23:08;16.08;;;6.55;;
41139;SDS011;26881;48.784;9.192;2022-10-26T20:28:30;17.55;;;7.32;;
41139;SDS011;26881;48.784;9.192;2022-10-26T20:33:52;13.60;;;6.05;;
41139;SDS011;26881;48.784;9.192;2022-10-26T20:39:15;18.27;;;5.85;;
41139;SDS011;26881;48.784;9.192;2022-10-26T20:44:38;12.52;;;5.75;;
41139;SDS011;26881;48.784;9.192;2022-10-26T20:50:03;19.30;;;9.00;;
41139;SDS011;26881;48.784;9.192;2022-10-26T20:55:35;16.58;;;5.80;;
41139;SDS011;26881;48.784;9.192;2022-10-26T21:01:34;15.75;;;6.60;;
41139;SDS011;26881;48.784;9.192;2022-10-26T21:06:58;13.93;;;5.25;;
41139;SDS011;26881;48.784;9.192;2022-10-26T21:12:20;14.00;;;4.88;;
41139;SDS011;26881;48.784;9.192;2022-10-26T21:17:43;14.38;;;5.65;;
41139;SDS011;26881;48.784;9.192;2022-10-26T21:23:04;14.25;;;5.53;;
41139;SDS011;26881;48.784;9.192;2022-10-26T21:28:31;16.13;;;4.97;;
41139;SDS011;26881;48.784;9.192;2022-10-26T21:33:54;12.65;;;5.55;;
41139;SDS011;26881;48.784;9.192;2022-10-26T21:39:16;14.27;;;5.30;;
41139;SDS011;26881;48.784;9.192;2022-10-26T21:44:37;12.45;;;4.75;;
41139;SDS011;26881;48.784;9.192;2022-10-26T21:50:02;9.20;;;4.10;;
41139;SDS011;26881;48.784;9.192;2022-10-26T21:55:24;14.57;;;4.95;;
41139;SDS011;26881;48.784;9.192;2022-10-26T22:00:45;13.88;;;4.40;;
41139;SDS011;26881;48.784;9.192;2022-10-26T22:06:07;11.48;;;4.40;;
41139;SDS011;26881;48.784;9.192;2022-10-26T22:11:30;10.60;;;5.25;;
41139;SDS011;26881;48.784;9.192;2022-10-26T22:16:54;11.70;;;4.97;;
41139;SDS011;26881;48.784;9.192;2022-10-26T22:22:15;12.13;;;4.90;;
41139;SDS011;26881;48.784;9.192;2022-10-26T22:27:37;15.15;;;4.90;;
41139;SDS011;26881;48.784;9.192;2022-10-26T22:32:59;9.50;;;4.68;;
41139;SDS011;26881;48.784;9.192;2022-10-26T22:38:20;16.40;;;5.07;;
41139;SDS011;26881;48.784;9.192;2022-10-26T22:43:42;17.95;;;5.60;;
41139;SDS011;26881;48.784;9.192;2022-10-26T22:49:04;11.68;;;4.35;;
41139;SDS011;26881;48.784;9.192;2022-10-26T22:54:26;9.10;;;4.40;;
41139;SDS011;26881;48.784;9.192;2022-10-26T22:59:47;15.38;;;4.25;;
41139;SDS011;26881;48.784;9.192;2022-10-26T23:05:09;14.95;;;4.55;;
41139;SDS011;26881;48.784;9.192;2022-10-26T23:10:31;10.90;;;4.32;;
41139;SDS011;26881;48.784;9.192;2022-10-26T23:15:53;14.85;;;4.85;;
41139;SDS011;26881;48.784;9.192;2022-10-26T23:21:15;13.45;;;4.35;;
41139;SDS011;26881;48.784;9.192;2022-10-26T23:26:37;14.70;;;5.00;;
41139;SDS011;26881;48.784;9.192;2022-10-26T23:31:59;21.70;;;5.25;;
41139;SDS011;26881;48.784;9.192;2022-10-26T23:37:20;14.27;;;4.82;;
41139;SDS011;26881;48.784;9.192;2022-10-26T23:42:42;9.30;;;4.30;;
41139;SDS011;26881;48.784;9.192;2022-10-26T23:48:04;18.25;;;4.82;;
41139;SDS011;26881;48.784;9.192;2022-10-26T23:53:26;12.65;;;4.80;;
41139;SDS011;26881;48.784;9.192;2022-10-26T23:58:50;19.40;;;5.47;;
